| << 15.4. | 17.4. >> |
|
Dirección del viento en Grado |
Velocidad del viento en km/h |
Ráfagas de viento en m/s |
Temperatura en °C |
Humedad rel. en % |
Windchill en °C |
Presión atm. en hPa |
Punto de rocío en °C |
Precipitación en mm |
Radiación global en W/m² |
|
|---|---|---|---|---|---|---|---|---|---|---|
| ▲ Máximos | 14,0 | 6,1 | 20,0 | 95,5 | 21,04 | 15,2 | 1184 | |||
| Ø Promedio | 305,6 | 8,1 | 4,0 | 14,3 | 89,7 | 14,03 | 12,5 | 252 | ||
| ▼ Mínimos | 4,2 | 2,5 | 11,6 | 72,7 | 10,52 | 10,5 | 7 | |||
| ∑ Total |
| Tiempo (UTC) | Dirección del viento en Grado | Velocidad del viento en km/h | Ráfagas de viento en m/s | Temperatura en °C | Humedad rel. en % | Windchill en °C | Presión atm. en hPa | Punto de rocío en °C | Precipitación en mm | Radiación global en W/m² |
|---|---|---|---|---|---|---|---|---|---|---|
| 00:00 | 297,5 | 7,3 | 3,5 | 12,3 | 95,5 | 11,80 | --- | 11,4 | --- | 7 |
| 00:10 | 310,3 | 8,7 | 4,1 | 12,2 | 95,5 | 11,50 | --- | 11,4 | --- | 7 |
| 00:20 | 297,5 | 7,9 | 3,9 | 12,2 | 95,5 | 11,61 | --- | 11,4 | --- | 7 |
| 00:30 | 287,6 | 8,3 | 3,9 | 12,0 | 95,3 | 11,32 | --- | 11,1 | --- | 7 |
| 00:40 | 285,1 | 7,8 | 3,7 | 12,0 | 95,4 | 11,40 | --- | 11,1 | --- | 7 |
| 00:50 | 297,7 | 8,7 | 5,1 | 12,1 | 95,5 | 11,33 | --- | 11,2 | --- | 7 |
| 01:00 | 310,2 | 7,7 | 4,0 | 12,1 | 95,4 | 11,50 | --- | 11,2 | --- | 7 |
| 01:10 | 320,7 | 8,6 | 5,1 | 12,0 | 95,3 | 11,27 | --- | 11,1 | --- | 7 |
| 01:20 | 297,7 | 9,4 | 4,7 | 12,0 | 95,3 | 11,09 | --- | 11,1 | --- | 7 |
| 01:30 | 287,0 | 9,3 | 4,4 | 12,1 | 95,4 | 11,21 | --- | 11,2 | --- | 7 |
| 01:40 | 300,0 | 9,1 | 3,9 | 12,1 | 95,3 | 11,25 | --- | 11,2 | --- | 7 |
| 01:50 | 290,9 | 9,6 | 4,7 | 12,1 | 95,4 | 11,25 | --- | 11,3 | --- | 7 |
| 02:00 | 307,4 | 9,6 | 4,4 | 12,1 | 95,4 | 11,26 | --- | 11,3 | --- | 7 |
| 02:10 | 303,9 | 8,8 | 4,0 | 12,1 | 95,4 | 11,34 | --- | 11,2 | --- | 7 |
| 02:20 | 307,7 | 10,2 | 4,3 | 12,0 | 95,2 | 10,94 | --- | 11,1 | --- | 7 |
| 02:30 | 284,4 | 9,2 | 4,3 | 11,7 | 95,1 | 10,85 | --- | 10,9 | --- | 7 |
| 02:40 | 283,2 | 8,6 | 4,0 | 11,6 | 95,0 | 10,81 | --- | 10,7 | --- | 7 |
| 02:50 | 282,6 | 9,9 | 5,6 | 11,6 | 95,0 | 10,56 | --- | 10,7 | --- | 7 |
| 03:00 | 264,1 | 11,1 | 5,9 | 11,7 | 95,0 | 10,55 | --- | 10,8 | --- | 7 |
| 03:10 | 290,5 | 10,5 | 5,6 | 11,8 | 94,8 | 10,74 | --- | 10,9 | --- | 7 |
| 03:20 | 295,4 | 9,8 | 4,7 | 12,0 | 94,9 | 11,09 | --- | 11,1 | --- | 7 |
| 03:30 | 291,9 | 9,2 | 5,5 | 12,2 | 95,0 | 11,34 | --- | 11,2 | --- | 7 |
| 03:40 | 281,6 | 9,6 | 4,0 | 12,1 | 94,9 | 11,19 | --- | 11,2 | --- | 7 |
| 03:50 | 299,7 | 9,0 | 4,0 | 12,2 | 95,1 | 11,39 | --- | 11,3 | --- | 7 |
| 04:00 | 313,1 | 8,5 | 3,8 | 12,3 | 95,2 | 11,59 | --- | 11,4 | --- | 7 |
| 04:10 | 309,2 | 6,8 | 3,3 | 12,2 | 95,0 | 11,80 | --- | 11,2 | --- | 7 |
| 04:20 | 320,7 | 8,2 | 4,0 | 12,2 | 95,2 | 11,57 | --- | 11,3 | --- | 7 |
| 04:30 | 298,7 | 9,1 | 4,0 | 12,2 | 95,1 | 11,35 | --- | 11,3 | --- | 7 |
| 04:40 | 303,5 | 8,7 | 4,9 | 12,2 | 95,2 | 11,47 | --- | 11,3 | --- | 7 |
| 04:50 | 329,8 | 9,9 | 5,1 | 12,2 | 95,2 | 11,29 | --- | 11,3 | --- | 7 |
| 05:00 | 317,3 | 8,5 | 4,5 | 12,2 | 95,1 | 11,46 | --- | 11,3 | --- | 7 |
| 05:10 | 291,6 | 10,1 | 5,5 | 12,1 | 95,0 | 11,09 | --- | 11,2 | --- | 7 |
| 05:20 | 296,7 | 10,0 | 5,0 | 12,1 | 95,2 | 11,16 | --- | 11,2 | --- | 7 |
| 05:30 | 310,9 | 14,0 | 5,8 | 12,0 | 95,0 | 10,52 | --- | 11,1 | --- | 7 |
| 05:40 | 304,8 | 9,7 | 4,8 | 11,8 | 94,8 | 10,83 | --- | 10,8 | --- | 7 |
| 05:50 | 296,8 | 9,1 | 4,6 | 11,6 | 94,6 | 10,71 | --- | 10,6 | --- | 7 |
| 06:00 | 303,8 | 8,2 | 4,2 | 11,6 | 94,4 | 10,85 | --- | 10,6 | --- | 7 |
| 06:10 | 274,2 | 6,9 | 3,1 | 11,6 | 94,2 | 11,10 | --- | 10,5 | --- | 7 |
| 06:20 | 268,2 | 6,8 | 3,1 | 11,7 | 94,2 | 11,30 | --- | 10,7 | --- | 7 |
| 06:30 | 281,5 | 7,8 | 3,7 | 11,9 | 93,9 | 11,26 | --- | 10,8 | --- | 8 |
| 06:40 | 293,8 | 6,6 | 3,3 | 12,1 | 93,8 | 11,82 | --- | 11,1 | --- | 10 |
| 06:50 | 281,5 | 7,5 | 3,8 | 12,3 | 93,9 | 11,83 | --- | 11,2 | --- | 15 |
| 07:00 | 282,4 | 9,4 | 4,4 | 12,4 | 94,0 | 11,58 | --- | 11,3 | --- | 21 |
| 07:10 | 286,1 | 9,1 | 5,7 | 12,5 | 94,2 | 11,81 | --- | 11,5 | --- | 18 |
| 07:20 | 304,3 | 8,1 | 4,6 | 12,7 | 94,5 | 12,15 | --- | 11,7 | --- | 22 |
| 07:30 | 311,1 | 9,1 | 4,8 | 12,7 | 94,5 | 11,99 | --- | 11,7 | --- | 55 |
| 07:40 | 321,5 | 10,7 | 5,9 | 12,6 | 94,5 | 11,72 | --- | 11,7 | --- | 70 |
| 07:50 | 310,2 | 9,4 | 4,6 | 12,7 | 94,6 | 11,96 | --- | 11,7 | --- | 124 |
| Tiempo (UTC) | Dirección del viento en Grado | Velocidad del viento en km/h | Ráfagas de viento en m/s | Temperatura en °C | Humedad rel. en % | Windchill en °C | Presión atm. en hPa | Punto de rocío en °C | Precipitación en mm | Radiación global en W/m² |
|---|---|---|---|---|---|---|---|---|---|---|
| 08:00 | 306,2 | 7,3 | 3,5 | 12,9 | 94,5 | 12,60 | --- | 12,0 | --- | 148 |
| 08:10 | 293,9 | 9,2 | 6,1 | 13,1 | 94,4 | 12,43 | --- | 12,1 | --- | 49 |
| 08:20 | 316,5 | 9,8 | 4,7 | 13,0 | 94,4 | 12,29 | --- | 12,0 | --- | 158 |
| 08:30 | 313,4 | 9,1 | 4,8 | 13,1 | 94,6 | 12,54 | --- | 12,2 | --- | 128 |
| 08:40 | 316,5 | 11,1 | 5,8 | 13,2 | 94,4 | 12,26 | --- | 12,2 | --- | 175 |
| 08:50 | 338,5 | 9,7 | 4,1 | 13,2 | 94,3 | 12,51 | --- | 12,2 | --- | 247 |
| 09:00 | 333,4 | 9,2 | 3,8 | 13,4 | 93,9 | 12,78 | --- | 12,3 | --- | 280 |
| 09:10 | 309,4 | 9,4 | 4,4 | 13,6 | 93,6 | 13,00 | --- | 12,4 | --- | 228 |
| 09:20 | 302,5 | 11,0 | 5,2 | 13,6 | 93,4 | 12,76 | --- | 12,4 | --- | 130 |
| 09:30 | 304,4 | 11,9 | 5,6 | 13,4 | 93,6 | 12,40 | --- | 12,2 | --- | 162 |
| 09:40 | 316,7 | 10,4 | 4,7 | 13,2 | 93,6 | 12,45 | --- | 12,1 | --- | 221 |
| 09:50 | 330,9 | 9,9 | 4,8 | 13,4 | 93,3 | 12,73 | --- | 12,2 | --- | 453 |
| 10:00 | 1,4 | 9,7 | 4,7 | 14,2 | 92,5 | 13,76 | --- | 12,9 | --- | 642 |
| 10:10 | 351,5 | 10,2 | 5,3 | 14,8 | 89,6 | 14,30 | --- | 13,0 | --- | 829 |
| 10:20 | 359,5 | 8,4 | 4,3 | 15,7 | 86,1 | 15,73 | --- | 13,3 | --- | 635 |
| 10:30 | 333,3 | 8,4 | 4,5 | 15,8 | 84,1 | 15,80 | --- | 13,1 | --- | 719 |
| 10:40 | 325,6 | 9,3 | 4,2 | 15,8 | 83,7 | 15,69 | --- | 13,0 | --- | 792 |
| 10:50 | 312,9 | 8,2 | 4,1 | 16,1 | 82,6 | 16,12 | --- | 13,1 | --- | 874 |
| 11:00 | 336,5 | 5,8 | 3,0 | 16,8 | 81,7 | 17,32 | --- | 13,6 | --- | 1093 |
| 11:10 | 291,2 | 8,0 | 3,7 | 17,2 | 80,7 | 17,47 | --- | 13,8 | --- | 1052 |
| 11:20 | 303,1 | 7,8 | 4,1 | 17,2 | 80,9 | 17,50 | --- | 13,9 | --- | 597 |
| 11:30 | 288,4 | 6,6 | 3,2 | 17,1 | 81,0 | 17,54 | --- | 13,8 | --- | 556 |
| 11:40 | 312,0 | 6,9 | 3,5 | 16,9 | 81,0 | 17,28 | --- | 13,6 | --- | 676 |
| 11:50 | 326,6 | 6,9 | 3,4 | 17,1 | 80,8 | 17,48 | --- | 13,7 | --- | 787 |
| 12:00 | 294,6 | 7,4 | 4,0 | 17,4 | 80,3 | 17,77 | --- | 13,9 | --- | 1096 |
| 12:10 | 310,1 | 6,2 | 3,2 | 17,8 | 79,6 | 18,39 | --- | 14,2 | --- | 1132 |
| 12:20 | 330,9 | 6,0 | 3,1 | 18,4 | 77,3 | 19,19 | --- | 14,4 | --- | 1154 |
| 12:30 | 308,5 | 6,3 | 3,7 | 19,2 | 74,8 | 20,10 | --- | 14,7 | --- | 1184 |
| 12:40 | 306,2 | 7,6 | 4,1 | 18,7 | 75,9 | 19,27 | --- | 14,4 | --- | 911 |
| 12:50 | 330,3 | 8,2 | 3,7 | 18,3 | 77,1 | 18,77 | --- | 14,2 | --- | 740 |
| 13:00 | 298,8 | 8,8 | 4,3 | 17,8 | 79,5 | 18,13 | --- | 14,2 | --- | 543 |
| 13:10 | 297,0 | 7,9 | 3,5 | 17,3 | 82,0 | 17,66 | --- | 14,2 | --- | 771 |
| 13:20 | 302,0 | 8,4 | 3,9 | 17,6 | 81,6 | 17,85 | --- | 14,4 | --- | 818 |
| 13:30 | 304,1 | 8,3 | 4,2 | 17,4 | 80,8 | 17,71 | --- | 14,1 | --- | 977 |
| 13:40 | 290,6 | 8,3 | 4,2 | 17,5 | 80,6 | 17,81 | --- | 14,1 | --- | 858 |
| 13:50 | 331,4 | 7,7 | 3,4 | 17,9 | 80,5 | 18,31 | --- | 14,5 | --- | 993 |
| 14:00 | 304,8 | 6,3 | 3,4 | 18,1 | 78,3 | 18,82 | --- | 14,3 | --- | 849 |
| 14:10 | 325,1 | 7,8 | 4,1 | 18,1 | 78,6 | 18,51 | --- | 14,3 | --- | 1020 |
| 14:20 | 305,6 | 7,0 | 3,2 | 18,5 | 77,5 | 19,15 | --- | 14,5 | --- | 991 |
| 14:30 | 310,5 | 6,2 | 3,6 | 19,1 | 75,7 | 19,91 | --- | 14,7 | --- | 860 |
| 14:40 | 334,4 | 5,2 | 3,1 | 19,6 | 74,4 | 20,70 | --- | 15,0 | --- | 743 |
| 14:50 | 303,1 | 5,5 | 2,5 | 20,0 | 72,7 | 21,04 | --- | 15,0 | --- | 854 |
| 15:00 | 309,1 | 5,5 | 3,1 | 19,9 | 73,5 | 20,92 | --- | 15,1 | --- | 698 |
| 15:10 | 311,0 | 7,9 | 4,1 | 19,6 | 75,6 | 20,31 | --- | 15,2 | --- | 750 |
| 15:20 | 308,3 | 8,4 | 4,1 | 19,1 | 77,1 | 19,66 | --- | 15,0 | --- | 787 |
| 15:30 | 310,6 | 7,8 | 4,3 | 19,0 | 77,3 | 19,64 | --- | 15,0 | --- | 682 |
| 15:40 | 300,6 | 7,7 | 3,4 | 18,5 | 78,4 | 18,99 | --- | 14,6 | --- | 486 |
| 15:50 | 303,7 | 7,9 | 3,8 | 17,9 | 79,6 | 18,33 | --- | 14,3 | --- | 490 |
| Tiempo (UTC) | Dirección del viento en Grado | Velocidad del viento en km/h | Ráfagas de viento en m/s | Temperatura en °C | Humedad rel. en % | Windchill en °C | Presión atm. en hPa | Punto de rocío en °C | Precipitación en mm | Radiación global en W/m² |
|---|---|---|---|---|---|---|---|---|---|---|
| 16:00 | 329,9 | 5,8 | 2,7 | 17,5 | 80,4 | 18,21 | --- | 14,1 | --- | 513 |
| 16:10 | 330,7 | 6,6 | 3,1 | 18,2 | 79,0 | 18,83 | --- | 14,5 | --- | 582 |
| 16:20 | 297,6 | 6,8 | 3,1 | 18,1 | 79,4 | 18,72 | --- | 14,5 | --- | 421 |
| 16:30 | 321,5 | 7,4 | 4,0 | 17,5 | 80,4 | 17,92 | --- | 14,1 | --- | 296 |
| 16:40 | 321,2 | 6,3 | 3,2 | 16,8 | 82,8 | 17,25 | --- | 13,8 | --- | 249 |
| 16:50 | 333,0 | 7,3 | 3,4 | 16,5 | 84,1 | 16,72 | --- | 13,7 | --- | 173 |
| 17:00 | 308,7 | 6,1 | 3,1 | 15,8 | 85,5 | 16,21 | --- | 13,3 | --- | 156 |
| 17:10 | 321,9 | 6,8 | 3,2 | 15,5 | 87,0 | 15,71 | --- | 13,3 | --- | 161 |
| 17:20 | 318,5 | 6,5 | 3,1 | 15,3 | 87,2 | 15,51 | --- | 13,1 | --- | 158 |
| 17:30 | 329,3 | 6,5 | 3,0 | 15,2 | 88,0 | 15,35 | --- | 13,1 | --- | 145 |
| 17:40 | 317,2 | 8,3 | 3,2 | 15,0 | 88,3 | 14,83 | --- | 13,0 | --- | 136 |
| 17:50 | 317,6 | 8,4 | 3,3 | 14,7 | 89,0 | 14,51 | --- | 12,8 | --- | 97 |
| 18:00 | 326,6 | 7,4 | 3,3 | 14,6 | 89,6 | 14,56 | --- | 12,9 | --- | 97 |
| 18:10 | 325,7 | 7,4 | 3,2 | 14,5 | 90,1 | 14,44 | --- | 12,8 | --- | 108 |
| 18:20 | 324,7 | 5,7 | 2,5 | 14,4 | 90,2 | 14,63 | --- | 12,7 | --- | 88 |
| 18:30 | 315,1 | 6,0 | 3,3 | 14,5 | 90,4 | 14,63 | --- | 12,8 | --- | 40 |
| 18:40 | 299,3 | 7,1 | 3,4 | 14,3 | 90,6 | 14,23 | --- | 12,7 | --- | 25 |
| 18:50 | 290,4 | 6,4 | 3,2 | 14,1 | 91,2 | 14,11 | --- | 12,6 | --- | 15 |
| 19:00 | 290,0 | 7,2 | 3,6 | 14,0 | 91,7 | 13,83 | --- | 12,5 | --- | 13 |
| 19:10 | 287,3 | 7,6 | 4,1 | 13,9 | 92,1 | 13,64 | --- | 12,5 | --- | 11 |
| 19:20 | 279,7 | 9,2 | 4,1 | 13,5 | 92,1 | 12,95 | --- | 12,1 | --- | 10 |
| 19:30 | 291,2 | 9,5 | 4,9 | 13,5 | 92,5 | 12,90 | --- | 12,2 | --- | 8 |
| 19:40 | 295,0 | 6,8 | 4,1 | 13,5 | 92,8 | 13,38 | --- | 12,3 | --- | 8 |
| 19:50 | 303,5 | 6,2 | 3,4 | 13,5 | 92,9 | 13,49 | --- | 12,3 | --- | 7 |
| 20:00 | 300,2 | 7,1 | 3,2 | 13,5 | 93,1 | 13,28 | --- | 12,3 | --- | 7 |
| 20:10 | 308,8 | 8,3 | 3,8 | 13,4 | 93,2 | 12,95 | --- | 12,2 | --- | 7 |
| 20:20 | 310,3 | 8,9 | 4,0 | 13,3 | 93,2 | 12,77 | --- | 12,1 | --- | 7 |
| 20:30 | 309,7 | 8,1 | 3,4 | 13,3 | 93,3 | 12,92 | --- | 12,2 | --- | 7 |
| 20:40 | 312,4 | 8,0 | 3,7 | 13,4 | 93,5 | 13,01 | --- | 12,3 | --- | 7 |
| 20:50 | 304,5 | 7,3 | 3,5 | 13,3 | 93,6 | 13,07 | --- | 12,2 | --- | 7 |
| 21:00 | 307,6 | 9,1 | 3,6 | 13,3 | 93,6 | 12,72 | --- | 12,2 | --- | 7 |
| 21:10 | 311,0 | 7,5 | 3,8 | 13,2 | 93,7 | 12,88 | --- | 12,1 | --- | 7 |
| 21:20 | 316,9 | 7,0 | 3,3 | 13,1 | 93,7 | 12,86 | --- | 12,0 | --- | 7 |
| 21:30 | 291,3 | 6,6 | 3,4 | 13,0 | 93,7 | 12,84 | --- | 11,9 | --- | 7 |
| 21:40 | 289,9 | 6,1 | 2,6 | 13,1 | 93,8 | 13,02 | --- | 12,0 | --- | 7 |
| 21:50 | 300,8 | 5,9 | 3,0 | 13,1 | 93,7 | 13,10 | --- | 12,0 | --- | 7 |
| 22:00 | 273,4 | 6,5 | 2,7 | 13,1 | 93,8 | 12,92 | --- | 12,0 | --- | 7 |
| 22:10 | 290,2 | 7,0 | 3,1 | 13,2 | 93,9 | 12,98 | --- | 12,1 | --- | 7 |
| 22:20 | 294,7 | 8,5 | 3,8 | 13,2 | 93,9 | 12,70 | --- | 12,1 | --- | 7 |
| 22:30 | 298,2 | 7,8 | 3,7 | 13,1 | 94,0 | 12,70 | --- | 12,0 | --- | 7 |
| 22:40 | 293,7 | 7,3 | 3,9 | 13,0 | 94,0 | 12,72 | --- | 12,0 | --- | 7 |
| 22:50 | 299,1 | 6,7 | 3,3 | 13,0 | 94,0 | 12,82 | --- | 12,0 | --- | 7 |
| 23:00 | 284,6 | 8,1 | 4,1 | 12,9 | 94,1 | 12,43 | --- | 11,9 | --- | 7 |
| 23:10 | 275,3 | 10,1 | 4,7 | 12,9 | 94,2 | 12,07 | --- | 11,9 | --- | 7 |
| 23:20 | 293,2 | 6,3 | 3,8 | 12,9 | 94,2 | 12,78 | --- | 11,8 | --- | 7 |
| 23:30 | 308,8 | 4,2 | 2,7 | 12,9 | 94,3 | 13,37 | --- | 11,8 | --- | 7 |
| 23:40 | 291,2 | 7,1 | 3,8 | 13,0 | 94,4 | 12,68 | --- | 12,0 | --- | 7 |
| 23:50 | 281,7 | 9,9 | 4,7 | 13,1 | 94,6 | 12,30 | --- | 12,1 | --- | 7 |
| << 15.4. | 17.4. >> |